sensor_id;sensor_type;location;lat;lon;timestamp;P1;durP1;ratioP1;P2;durP2;ratioP2
47009;SDS011;59230;54.164;-3.124;2023-04-03T00:01:08;14.18;;;3.55;;
47009;SDS011;59230;54.164;-3.124;2023-04-03T00:03:36;17.23;;;4.07;;
47009;SDS011;59230;54.164;-3.124;2023-04-03T00:06:02;14.25;;;4.47;;
47009;SDS011;59230;54.164;-3.124;2023-04-03T00:08:35;7.85;;;3.22;;
47009;SDS011;59230;54.164;-3.124;2023-04-03T00:11:04;17.48;;;3.78;;
47009;SDS011;59230;54.164;-3.124;2023-04-03T00:13:32;17.17;;;4.07;;
47009;SDS011;59230;54.164;-3.124;2023-04-03T00:15:59;14.32;;;3.50;;
47009;SDS011;59230;54.164;-3.124;2023-04-03T00:18:25;20.38;;;4.05;;
47009;SDS011;59230;54.164;-3.124;2023-04-03T00:20:51;15.75;;;3.80;;
47009;SDS011;59230;54.164;-3.124;2023-04-03T00:23:17;14.02;;;3.67;;
47009;SDS011;59230;54.164;-3.124;2023-04-03T00:25:43;15.05;;;3.50;;
47009;SDS011;59230;54.164;-3.124;2023-04-03T00:28:10;15.77;;;3.47;;
47009;SDS011;59230;54.164;-3.124;2023-04-03T00:30:38;12.98;;;3.55;;
47009;SDS011;59230;54.164;-3.124;2023-04-03T00:33:03;11.60;;;3.55;;
47009;SDS011;59230;54.164;-3.124;2023-04-03T00:35:33;13.50;;;3.40;;
47009;SDS011;59230;54.164;-3.124;2023-04-03T00:38:00;15.52;;;3.30;;
47009;SDS011;59230;54.164;-3.124;2023-04-03T00:40:27;16.20;;;3.95;;
47009;SDS011;59230;54.164;-3.124;2023-04-03T00:43:01;9.88;;;3.47;;
47009;SDS011;59230;54.164;-3.124;2023-04-03T00:45:35;16.23;;;3.63;;
47009;SDS011;59230;54.164;-3.124;2023-04-03T00:48:04;12.55;;;3.40;;
47009;SDS011;59230;54.164;-3.124;2023-04-03T00:50:36;12.57;;;3.33;;
47009;SDS011;59230;54.164;-3.124;2023-04-03T00:53:04;19.05;;;3.80;;
47009;SDS011;59230;54.164;-3.124;2023-04-03T00:55:35;17.88;;;4.10;;
47009;SDS011;59230;54.164;-3.124;2023-04-03T00:58:01;14.40;;;4.38;;
47009;SDS011;59230;54.164;-3.124;2023-04-03T01:00:28;17.45;;;4.28;;
47009;SDS011;59230;54.164;-3.124;2023-04-03T01:02:53;12.60;;;3.63;;
47009;SDS011;59230;54.164;-3.124;2023-04-03T01:05:21;9.95;;;3.58;;
47009;SDS011;59230;54.164;-3.124;2023-04-03T01:07:49;18.75;;;4.13;;
47009;SDS011;59230;54.164;-3.124;2023-04-03T01:10:16;16.67;;;3.90;;
47009;SDS011;59230;54.164;-3.124;2023-04-03T01:12:45;13.13;;;3.75;;
47009;SDS011;59230;54.164;-3.124;2023-04-03T01:18:00;14.00;;;4.00;;
47009;SDS011;59230;54.164;-3.124;2023-04-03T01:23:18;19.13;;;4.25;;
47009;SDS011;59230;54.164;-3.124;2023-04-03T01:25:56;13.48;;;4.70;;
47009;SDS011;59230;54.164;-3.124;2023-04-03T01:28:24;12.52;;;4.22;;
47009;SDS011;59230;54.164;-3.124;2023-04-03T01:33:46;13.23;;;3.95;;
47009;SDS011;59230;54.164;-3.124;2023-04-03T01:36:25;12.48;;;4.03;;
47009;SDS011;59230;54.164;-3.124;2023-04-03T01:38:55;13.63;;;3.78;;
47009;SDS011;59230;54.164;-3.124;2023-04-03T01:41:21;11.18;;;3.67;;
47009;SDS011;59230;54.164;-3.124;2023-04-03T01:43:48;19.88;;;4.05;;
47009;SDS011;59230;54.164;-3.124;2023-04-03T01:46:15;11.20;;;3.30;;
47009;SDS011;59230;54.164;-3.124;2023-04-03T01:48:43;16.88;;;4.07;;
47009;SDS011;59230;54.164;-3.124;2023-04-03T01:51:09;15.90;;;3.78;;
47009;SDS011;59230;54.164;-3.124;2023-04-03T01:53:36;18.80;;;3.95;;
47009;SDS011;59230;54.164;-3.124;2023-04-03T01:56:03;16.75;;;4.00;;
47009;SDS011;59230;54.164;-3.124;2023-04-03T01:58:29;11.27;;;3.70;;
47009;SDS011;59230;54.164;-3.124;2023-04-03T02:00:54;12.73;;;5.50;;
47009;SDS011;59230;54.164;-3.124;2023-04-03T02:03:22;13.13;;;3.80;;
47009;SDS011;59230;54.164;-3.124;2023-04-03T02:05:48;14.68;;;3.20;;
47009;SDS011;59230;54.164;-3.124;2023-04-03T02:08:18;10.88;;;3.25;;
47009;SDS011;59230;54.164;-3.124;2023-04-03T02:10:48;13.35;;;4.40;;
47009;SDS011;59230;54.164;-3.124;2023-04-03T02:13:17;18.35;;;3.97;;
47009;SDS011;59230;54.164;-3.124;2023-04-03T02:15:44;15.43;;;4.03;;
47009;SDS011;59230;54.164;-3.124;2023-04-03T02:18:10;14.07;;;3.80;;
47009;SDS011;59230;54.164;-3.124;2023-04-03T02:20:40;17.83;;;4.40;;
47009;SDS011;59230;54.164;-3.124;2023-04-03T02:23:07;17.15;;;4.20;;
47009;SDS011;59230;54.164;-3.124;2023-04-03T02:25:33;16.05;;;3.88;;
47009;SDS011;59230;54.164;-3.124;2023-04-03T02:28:01;16.23;;;4.57;;
47009;SDS011;59230;54.164;-3.124;2023-04-03T02:30:28;15.48;;;4.47;;
47009;SDS011;59230;54.164;-3.124;2023-04-03T02:32:54;17.38;;;4.13;;
47009;SDS011;59230;54.164;-3.124;2023-04-03T02:35:23;13.85;;;4.03;;
47009;SDS011;59230;54.164;-3.124;2023-04-03T02:37:50;13.05;;;3.58;;
47009;SDS011;59230;54.164;-3.124;2023-04-03T02:40:16;10.95;;;4.07;;
47009;SDS011;59230;54.164;-3.124;2023-04-03T02:42:42;14.35;;;4.20;;
47009;SDS011;59230;54.164;-3.124;2023-04-03T02:45:10;11.07;;;4.25;;
47009;SDS011;59230;54.164;-3.124;2023-04-03T02:47:35;10.52;;;3.90;;
47009;SDS011;59230;54.164;-3.124;2023-04-03T02:50:02;17.92;;;4.95;;
47009;SDS011;59230;54.164;-3.124;2023-04-03T02:52:28;15.43;;;4.15;;
47009;SDS011;59230;54.164;-3.124;2023-04-03T02:54:54;13.60;;;4.40;;
47009;SDS011;59230;54.164;-3.124;2023-04-03T02:57:20;12.15;;;4.10;;
47009;SDS011;59230;54.164;-3.124;2023-04-03T02:59:46;15.68;;;4.35;;
47009;SDS011;59230;54.164;-3.124;2023-04-03T03:02:11;15.55;;;4.13;;
47009;SDS011;59230;54.164;-3.124;2023-04-03T03:04:38;17.55;;;4.70;;
47009;SDS011;59230;54.164;-3.124;2023-04-03T03:07:05;11.00;;;4.15;;
47009;SDS011;59230;54.164;-3.124;2023-04-03T03:09:32;17.02;;;4.18;;
47009;SDS011;59230;54.164;-3.124;2023-04-03T03:11:57;12.63;;;3.90;;
47009;SDS011;59230;54.164;-3.124;2023-04-03T03:14:25;13.25;;;4.70;;
47009;SDS011;59230;54.164;-3.124;2023-04-03T03:16:51;13.60;;;4.43;;
47009;SDS011;59230;54.164;-3.124;2023-04-03T03:19:17;12.95;;;4.00;;
47009;SDS011;59230;54.164;-3.124;2023-04-03T03:21:43;12.93;;;4.55;;
47009;SDS011;59230;54.164;-3.124;2023-04-03T03:24:11;12.35;;;4.22;;
47009;SDS011;59230;54.164;-3.124;2023-04-03T03:26:38;17.55;;;4.13;;
47009;SDS011;59230;54.164;-3.124;2023-04-03T03:29:05;20.08;;;4.82;;
47009;SDS011;59230;54.164;-3.124;2023-04-03T03:31:34;15.77;;;4.18;;
47009;SDS011;59230;54.164;-3.124;2023-04-03T03:34:00;13.27;;;4.40;;
47009;SDS011;59230;54.164;-3.124;2023-04-03T03:36:29;13.48;;;4.88;;
47009;SDS011;59230;54.164;-3.124;2023-04-03T03:38:56;16.10;;;3.72;;
47009;SDS011;59230;54.164;-3.124;2023-04-03T03:41:27;17.58;;;4.15;;
47009;SDS011;59230;54.164;-3.124;2023-04-03T03:43:53;22.00;;;4.22;;
47009;SDS011;59230;54.164;-3.124;2023-04-03T03:46:20;19.60;;;4.03;;
47009;SDS011;59230;54.164;-3.124;2023-04-03T03:48:46;14.57;;;4.95;;
47009;SDS011;59230;54.164;-3.124;2023-04-03T03:51:11;19.58;;;4.65;;
47009;SDS011;59230;54.164;-3.124;2023-04-03T03:53:40;11.98;;;4.72;;
47009;SDS011;59230;54.164;-3.124;2023-04-03T03:56:06;21.52;;;4.80;;
47009;SDS011;59230;54.164;-3.124;2023-04-03T03:58:32;13.63;;;4.15;;
47009;SDS011;59230;54.164;-3.124;2023-04-03T04:01:02;15.38;;;4.15;;
47009;SDS011;59230;54.164;-3.124;2023-04-03T04:03:30;8.77;;;4.28;;
47009;SDS011;59230;54.164;-3.124;2023-04-03T04:05:56;15.38;;;4.20;;
47009;SDS011;59230;54.164;-3.124;2023-04-03T04:08:23;13.70;;;4.60;;
47009;SDS011;59230;54.164;-3.124;2023-04-03T04:10:54;16.55;;;4.57;;
47009;SDS011;59230;54.164;-3.124;2023-04-03T04:16:14;13.77;;;4.03;;
47009;SDS011;59230;54.164;-3.124;2023-04-03T04:18:42;14.63;;;4.43;;
47009;SDS011;59230;54.164;-3.124;2023-04-03T04:21:07;12.93;;;4.20;;
47009;SDS011;59230;54.164;-3.124;2023-04-03T04:23:35;15.15;;;4.47;;
47009;SDS011;59230;54.164;-3.124;2023-04-03T04:26:01;15.65;;;4.40;;
47009;SDS011;59230;54.164;-3.124;2023-04-03T04:28:27;14.65;;;5.05;;
47009;SDS011;59230;54.164;-3.124;2023-04-03T04:30:53;11.48;;;4.45;;
47009;SDS011;59230;54.164;-3.124;2023-04-03T04:33:19;17.83;;;5.50;;
47009;SDS011;59230;54.164;-3.124;2023-04-03T04:35:47;15.65;;;4.60;;
47009;SDS011;59230;54.164;-3.124;2023-04-03T04:38:13;15.50;;;4.32;;
47009;SDS011;59230;54.164;-3.124;2023-04-03T04:40:40;16.63;;;4.32;;
47009;SDS011;59230;54.164;-3.124;2023-04-03T04:43:06;12.73;;;4.45;;
47009;SDS011;59230;54.164;-3.124;2023-04-03T04:45:36;19.45;;;5.25;;
47009;SDS011;59230;54.164;-3.124;2023-04-03T04:48:04;25.17;;;5.43;;
47009;SDS011;59230;54.164;-3.124;2023-04-03T04:50:31;20.75;;;4.90;;
47009;SDS011;59230;54.164;-3.124;2023-04-03T04:52:56;17.35;;;4.47;;
47009;SDS011;59230;54.164;-3.124;2023-04-03T04:55:24;16.00;;;4.95;;
47009;SDS011;59230;54.164;-3.124;2023-04-03T04:57:52;24.80;;;5.45;;
47009;SDS011;59230;54.164;-3.124;2023-04-03T05:00:18;17.35;;;5.28;;
47009;SDS011;59230;54.164;-3.124;2023-04-03T05:02:48;25.15;;;4.90;;
47009;SDS011;59230;54.164;-3.124;2023-04-03T05:05:14;20.10;;;5.50;;
47009;SDS011;59230;54.164;-3.124;2023-04-03T05:07:40;10.70;;;4.43;;
47009;SDS011;59230;54.164;-3.124;2023-04-03T05:10:07;14.88;;;5.10;;
47009;SDS011;59230;54.164;-3.124;2023-04-03T05:12:34;20.83;;;5.85;;
47009;SDS011;59230;54.164;-3.124;2023-04-03T05:15:00;20.02;;;5.43;;
47009;SDS011;59230;54.164;-3.124;2023-04-03T05:17:29;16.80;;;5.03;;
47009;SDS011;59230;54.164;-3.124;2023-04-03T05:19:54;20.15;;;5.53;;
47009;SDS011;59230;54.164;-3.124;2023-04-03T05:22:22;14.27;;;5.07;;
47009;SDS011;59230;54.164;-3.124;2023-04-03T05:24:48;17.40;;;5.75;;
47009;SDS011;59230;54.164;-3.124;2023-04-03T05:27:14;19.23;;;5.22;;
47009;SDS011;59230;54.164;-3.124;2023-04-03T05:29:39;13.00;;;5.03;;
47009;SDS011;59230;54.164;-3.124;2023-04-03T05:32:10;15.85;;;5.07;;
47009;SDS011;59230;54.164;-3.124;2023-04-03T05:34:37;22.52;;;4.78;;
47009;SDS011;59230;54.164;-3.124;2023-04-03T05:37:03;21.08;;;5.20;;
47009;SDS011;59230;54.164;-3.124;2023-04-03T05:39:31;21.30;;;5.38;;
47009;SDS011;59230;54.164;-3.124;2023-04-03T05:42:00;15.98;;;5.50;;
47009;SDS011;59230;54.164;-3.124;2023-04-03T05:44:27;19.98;;;5.03;;
47009;SDS011;59230;54.164;-3.124;2023-04-03T05:46:52;13.15;;;5.40;;
47009;SDS011;59230;54.164;-3.124;2023-04-03T05:49:21;17.15;;;5.20;;
47009;SDS011;59230;54.164;-3.124;2023-04-03T05:51:50;21.27;;;5.25;;
47009;SDS011;59230;54.164;-3.124;2023-04-03T05:54:19;12.55;;;5.50;;
47009;SDS011;59230;54.164;-3.124;2023-04-03T05:56:51;18.63;;;6.05;;
47009;SDS011;59230;54.164;-3.124;2023-04-03T05:59:17;14.15;;;5.28;;
47009;SDS011;59230;54.164;-3.124;2023-04-03T06:01:47;16.83;;;7.03;;
47009;SDS011;59230;54.164;-3.124;2023-04-03T06:04:14;13.93;;;5.80;;
47009;SDS011;59230;54.164;-3.124;2023-04-03T06:06:47;15.68;;;5.43;;
47009;SDS011;59230;54.164;-3.124;2023-04-03T06:09:20;20.27;;;6.22;;
47009;SDS011;59230;54.164;-3.124;2023-04-03T06:11:52;16.80;;;5.88;;
47009;SDS011;59230;54.164;-3.124;2023-04-03T06:14:19;21.30;;;6.03;;
47009;SDS011;59230;54.164;-3.124;2023-04-03T06:16:45;17.88;;;6.10;;
47009;SDS011;59230;54.164;-3.124;2023-04-03T06:19:11;15.90;;;5.30;;
47009;SDS011;59230;54.164;-3.124;2023-04-03T06:21:39;16.65;;;5.80;;
47009;SDS011;59230;54.164;-3.124;2023-04-03T06:24:04;20.20;;;6.32;;
47009;SDS011;59230;54.164;-3.124;2023-04-03T06:26:32;18.27;;;5.95;;
47009;SDS011;59230;54.164;-3.124;2023-04-03T06:29:00;21.30;;;6.40;;
47009;SDS011;59230;54.164;-3.124;2023-04-03T06:31:26;22.40;;;5.82;;
47009;SDS011;59230;54.164;-3.124;2023-04-03T06:33:54;14.23;;;5.70;;
47009;SDS011;59230;54.164;-3.124;2023-04-03T06:36:20;16.98;;;6.20;;
47009;SDS011;59230;54.164;-3.124;2023-04-03T06:38:47;24.35;;;5.93;;
47009;SDS011;59230;54.164;-3.124;2023-04-03T06:41:14;15.48;;;5.65;;
47009;SDS011;59230;54.164;-3.124;2023-04-03T06:43:40;14.85;;;5.55;;
47009;SDS011;59230;54.164;-3.124;2023-04-03T06:46:18;16.98;;;6.07;;
47009;SDS011;59230;54.164;-3.124;2023-04-03T06:48:47;16.27;;;5.85;;
47009;SDS011;59230;54.164;-3.124;2023-04-03T06:51:21;22.00;;;5.85;;
47009;SDS011;59230;54.164;-3.124;2023-04-03T06:53:53;17.10;;;6.10;;
47009;SDS011;59230;54.164;-3.124;2023-04-03T06:56:22;24.73;;;7.20;;
47009;SDS011;59230;54.164;-3.124;2023-04-03T06:58:48;26.80;;;6.28;;
47009;SDS011;59230;54.164;-3.124;2023-04-03T07:01:16;17.92;;;5.57;;
47009;SDS011;59230;54.164;-3.124;2023-04-03T07:03:47;16.95;;;6.28;;
47009;SDS011;59230;54.164;-3.124;2023-04-03T07:06:20;26.13;;;6.25;;
47009;SDS011;59230;54.164;-3.124;2023-04-03T07:08:47;30.02;;;6.82;;
47009;SDS011;59230;54.164;-3.124;2023-04-03T07:11:17;17.30;;;6.75;;
47009;SDS011;59230;54.164;-3.124;2023-04-03T07:13:42;22.63;;;7.00;;
47009;SDS011;59230;54.164;-3.124;2023-04-03T07:16:09;17.98;;;5.70;;
47009;SDS011;59230;54.164;-3.124;2023-04-03T07:18:36;20.58;;;6.00;;
47009;SDS011;59230;54.164;-3.124;2023-04-03T07:21:04;15.32;;;5.57;;
47009;SDS011;59230;54.164;-3.124;2023-04-03T07:23:31;16.02;;;6.22;;
47009;SDS011;59230;54.164;-3.124;2023-04-03T07:25:57;17.88;;;5.40;;
47009;SDS011;59230;54.164;-3.124;2023-04-03T07:28:22;24.75;;;6.30;;
47009;SDS011;59230;54.164;-3.124;2023-04-03T07:30:50;9.30;;;4.30;;
47009;SDS011;59230;54.164;-3.124;2023-04-03T07:33:27;12.57;;;5.70;;
47009;SDS011;59230;54.164;-3.124;2023-04-03T07:35:53;19.30;;;5.68;;
47009;SDS011;59230;54.164;-3.124;2023-04-03T07:38:20;19.80;;;5.80;;
47009;SDS011;59230;54.164;-3.124;2023-04-03T07:40:49;21.83;;;5.35;;
47009;SDS011;59230;54.164;-3.124;2023-04-03T07:43:16;20.27;;;6.22;;
47009;SDS011;59230;54.164;-3.124;2023-04-03T07:45:41;21.15;;;5.72;;
47009;SDS011;59230;54.164;-3.124;2023-04-03T07:48:11;20.25;;;4.82;;
47009;SDS011;59230;54.164;-3.124;2023-04-03T07:50:40;14.02;;;5.03;;
47009;SDS011;59230;54.164;-3.124;2023-04-03T07:53:07;19.42;;;5.97;;
47009;SDS011;59230;54.164;-3.124;2023-04-03T07:55:33;14.20;;;5.70;;
47009;SDS011;59230;54.164;-3.124;2023-04-03T07:58:04;15.30;;;4.72;;
47009;SDS011;59230;54.164;-3.124;2023-04-03T08:00:32;15.82;;;4.85;;
47009;SDS011;59230;54.164;-3.124;2023-04-03T08:03:01;16.40;;;5.38;;
47009;SDS011;59230;54.164;-3.124;2023-04-03T08:05:28;9.68;;;4.00;;
47009;SDS011;59230;54.164;-3.124;2023-04-03T08:07:54;14.38;;;3.90;;
47009;SDS011;59230;54.164;-3.124;2023-04-03T08:10:21;10.10;;;3.90;;
47009;SDS011;59230;54.164;-3.124;2023-04-03T08:12:48;12.77;;;4.07;;
47009;SDS011;59230;54.164;-3.124;2023-04-03T08:15:13;17.80;;;4.47;;
47009;SDS011;59230;54.164;-3.124;2023-04-03T08:17:40;12.50;;;4.32;;
47009;SDS011;59230;54.164;-3.124;2023-04-03T08:20:06;13.82;;;4.85;;
47009;SDS011;59230;54.164;-3.124;2023-04-03T08:22:34;18.90;;;4.78;;
47009;SDS011;59230;54.164;-3.124;2023-04-03T08:25:01;14.95;;;4.40;;
47009;SDS011;59230;54.164;-3.124;2023-04-03T08:27:28;12.80;;;3.95;;
47009;SDS011;59230;54.164;-3.124;2023-04-03T08:29:57;14.65;;;3.60;;
47009;SDS011;59230;54.164;-3.124;2023-04-03T08:32:27;10.68;;;3.75;;
47009;SDS011;59230;54.164;-3.124;2023-04-03T08:34:55;10.52;;;3.15;;
47009;SDS011;59230;54.164;-3.124;2023-04-03T08:37:21;12.13;;;3.42;;
47009;SDS011;59230;54.164;-3.124;2023-04-03T08:39:47;9.80;;;3.47;;
47009;SDS011;59230;54.164;-3.124;2023-04-03T08:42:21;15.45;;;3.80;;
47009;SDS011;59230;54.164;-3.124;2023-04-03T08:47:44;8.05;;;3.30;;
47009;SDS011;59230;54.164;-3.124;2023-04-03T08:50:20;10.32;;;3.75;;
47009;SDS011;59230;54.164;-3.124;2023-04-03T08:52:48;11.90;;;3.42;;
47009;SDS011;59230;54.164;-3.124;2023-04-03T08:57:47;17.48;;;3.70;;
47009;SDS011;59230;54.164;-3.124;2023-04-03T09:00:18;8.75;;;3.20;;
47009;SDS011;59230;54.164;-3.124;2023-04-03T09:02:49;13.50;;;4.05;;
47009;SDS011;59230;54.164;-3.124;2023-04-03T09:05:19;9.13;;;3.30;;
47009;SDS011;59230;54.164;-3.124;2023-04-03T09:10:44;14.52;;;3.33;;
47009;SDS011;59230;54.164;-3.124;2023-04-03T09:16:05;10.35;;;2.90;;
47009;SDS011;59230;54.164;-3.124;2023-04-03T09:18:57;14.02;;;2.90;;
47009;SDS011;59230;54.164;-3.124;2023-04-03T09:24:49;11.30;;;3.13;;
47009;SDS011;59230;54.164;-3.124;2023-04-03T09:27:22;9.77;;;3.22;;
47009;SDS011;59230;54.164;-3.124;2023-04-03T09:29:52;8.82;;;3.33;;
47009;SDS011;59230;54.164;-3.124;2023-04-03T09:34:54;7.65;;;2.60;;
47009;SDS011;59230;54.164;-3.124;2023-04-03T09:40:29;8.00;;;2.58;;
47009;SDS011;59230;54.164;-3.124;2023-04-03T09:42:58;7.95;;;2.42;;
47009;SDS011;59230;54.164;-3.124;2023-04-03T09:45:48;8.98;;;2.75;;
47009;SDS011;59230;54.164;-3.124;2023-04-03T09:48:18;9.30;;;2.55;;
47009;SDS011;59230;54.164;-3.124;2023-04-03T09:50:54;13.40;;;2.70;;
47009;SDS011;59230;54.164;-3.124;2023-04-03T09:56:19;10.20;;;2.53;;
47009;SDS011;59230;54.164;-3.124;2023-04-03T09:59:15;12.73;;;3.05;;
47009;SDS011;59230;54.164;-3.124;2023-04-03T10:01:43;7.07;;;2.25;;
47009;SDS011;59230;54.164;-3.124;2023-04-03T10:04:44;7.78;;;2.80;;
47009;SDS011;59230;54.164;-3.124;2023-04-03T10:10:01;9.65;;;2.55;;
47009;SDS011;59230;54.164;-3.124;2023-04-03T10:15:57;12.53;;;3.07;;
47009;SDS011;59230;54.164;-3.124;2023-04-03T10:24:30;9.27;;;2.47;;
47009;SDS011;59230;54.164;-3.124;2023-04-03T10:32:58;7.40;;;2.70;;
47009;SDS011;59230;54.164;-3.124;2023-04-03T10:41:04;10.23;;;3.10;;
47009;SDS011;59230;54.164;-3.124;2023-04-03T10:44:19;8.60;;;3.28;;
47009;SDS011;59230;54.164;-3.124;2023-04-03T10:46:41;9.95;;;2.95;;
47009;SDS011;59230;54.164;-3.124;2023-04-03T10:54:46;8.85;;;3.35;;
47009;SDS011;59230;54.164;-3.124;2023-04-03T10:57:22;10.55;;;3.10;;
47009;SDS011;59230;54.164;-3.124;2023-04-03T10:59:53;10.93;;;3.70;;
47009;SDS011;59230;54.164;-3.124;2023-04-03T11:11:24;8.57;;;2.50;;
47009;SDS011;59230;54.164;-3.124;2023-04-03T11:19:59;8.27;;;2.92;;
47009;SDS011;59230;54.164;-3.124;2023-04-03T11:22:50;10.77;;;2.90;;
47009;SDS011;59230;54.164;-3.124;2023-04-03T11:25:24;10.80;;;2.33;;
47009;SDS011;59230;54.164;-3.124;2023-04-03T11:36:24;12.13;;;3.00;;
47009;SDS011;59230;54.164;-3.124;2023-04-03T11:38:52;7.68;;;2.50;;
47009;SDS011;59230;54.164;-3.124;2023-04-03T11:41:31;15.98;;;3.10;;
47009;SDS011;59230;54.164;-3.124;2023-04-03T11:44:25;14.18;;;3.15;;
47009;SDS011;59230;54.164;-3.124;2023-04-03T11:46:58;20.63;;;3.25;;
47009;SDS011;59230;54.164;-3.124;2023-04-03T12:46:11;15.35;;;3.42;;
47009;SDS011;59230;54.164;-3.124;2023-04-03T12:49:10;12.10;;;3.20;;
47009;SDS011;59230;54.164;-3.124;2023-04-03T12:51:48;12.15;;;3.00;;
47009;SDS011;59230;54.164;-3.124;2023-04-03T12:57:12;13.38;;;3.42;;
47009;SDS011;59230;54.164;-3.124;2023-04-03T12:59:50;13.90;;;3.40;;
47009;SDS011;59230;54.164;-3.124;2023-04-03T13:02:32;15.40;;;3.22;;
47009;SDS011;59230;54.164;-3.124;2023-04-03T13:05:08;10.30;;;3.38;;
47009;SDS011;59230;54.164;-3.124;2023-04-03T13:07:37;11.75;;;3.13;;
47009;SDS011;59230;54.164;-3.124;2023-04-03T13:12:44;11.77;;;3.20;;
47009;SDS011;59230;54.164;-3.124;2023-04-03T13:15:26;14.00;;;3.08;;
47009;SDS011;59230;54.164;-3.124;2023-04-03T13:21:23;14.05;;;2.63;;
47009;SDS011;59230;54.164;-3.124;2023-04-03T13:23:57;10.82;;;2.65;;
47009;SDS011;59230;54.164;-3.124;2023-04-03T13:26:28;9.40;;;3.25;;
47009;SDS011;59230;54.164;-3.124;2023-04-03T13:29:05;7.80;;;2.90;;
47009;SDS011;59230;54.164;-3.124;2023-04-03T13:31:45;16.73;;;3.85;;
47009;SDS011;59230;54.164;-3.124;2023-04-03T13:34:12;13.38;;;3.72;;
47009;SDS011;59230;54.164;-3.124;2023-04-03T13:36:45;16.55;;;3.83;;
47009;SDS011;59230;54.164;-3.124;2023-04-03T13:41:55;12.52;;;2.63;;
47009;SDS011;59230;54.164;-3.124;2023-04-03T13:44:32;12.82;;;2.80;;
47009;SDS011;59230;54.164;-3.124;2023-04-03T13:52:42;16.10;;;3.25;;
47009;SDS011;59230;54.164;-3.124;2023-04-03T14:00:51;11.93;;;3.08;;
47009;SDS011;59230;54.164;-3.124;2023-04-03T14:03:37;14.80;;;2.97;;
47009;SDS011;59230;54.164;-3.124;2023-04-03T14:06:14;12.38;;;3.38;;
47009;SDS011;59230;54.164;-3.124;2023-04-03T14:08:41;13.63;;;3.15;;
47009;SDS011;59230;54.164;-3.124;2023-04-03T14:11:11;11.43;;;2.55;;
47009;SDS011;59230;54.164;-3.124;2023-04-03T14:13:44;13.10;;;3.17;;
47009;SDS011;59230;54.164;-3.124;2023-04-03T14:16:18;20.27;;;3.17;;
47009;SDS011;59230;54.164;-3.124;2023-04-03T14:18:55;9.68;;;2.40;;
47009;SDS011;59230;54.164;-3.124;2023-04-03T14:21:22;14.82;;;2.78;;
47009;SDS011;59230;54.164;-3.124;2023-04-03T14:23:48;18.10;;;2.47;;
47009;SDS011;59230;54.164;-3.124;2023-04-03T14:26:21;14.00;;;2.70;;
47009;SDS011;59230;54.164;-3.124;2023-04-03T14:28:50;14.00;;;3.58;;
47009;SDS011;59230;54.164;-3.124;2023-04-03T14:31:17;10.48;;;3.13;;
47009;SDS011;59230;54.164;-3.124;2023-04-03T14:33:44;11.38;;;2.72;;
47009;SDS011;59230;54.164;-3.124;2023-04-03T14:38:52;16.20;;;3.40;;
47009;SDS011;59230;54.164;-3.124;2023-04-03T14:41:23;10.25;;;2.97;;
47009;SDS011;59230;54.164;-3.124;2023-04-03T14:43:53;16.50;;;3.05;;
47009;SDS011;59230;54.164;-3.124;2023-04-03T14:46:24;12.60;;;2.75;;
47009;SDS011;59230;54.164;-3.124;2023-04-03T14:48:58;12.65;;;3.13;;
47009;SDS011;59230;54.164;-3.124;2023-04-03T14:51:24;13.52;;;2.88;;
47009;SDS011;59230;54.164;-3.124;2023-04-03T14:53:52;15.52;;;2.70;;
47009;SDS011;59230;54.164;-3.124;2023-04-03T14:56:19;10.25;;;3.22;;
47009;SDS011;59230;54.164;-3.124;2023-04-03T14:58:50;13.00;;;3.00;;
47009;SDS011;59230;54.164;-3.124;2023-04-03T15:01:22;11.98;;;2.70;;
47009;SDS011;59230;54.164;-3.124;2023-04-03T15:03:53;16.63;;;3.08;;
47009;SDS011;59230;54.164;-3.124;2023-04-03T15:06:21;7.20;;;2.70;;
47009;SDS011;59230;54.164;-3.124;2023-04-03T15:08:47;9.43;;;2.65;;
47009;SDS011;59230;54.164;-3.124;2023-04-03T15:11:17;15.07;;;2.65;;
47009;SDS011;59230;54.164;-3.124;2023-04-03T15:13:46;13.80;;;3.13;;
47009;SDS011;59230;54.164;-3.124;2023-04-03T15:16:17;15.98;;;3.08;;
47009;SDS011;59230;54.164;-3.124;2023-04-03T15:18:43;12.15;;;3.22;;
47009;SDS011;59230;54.164;-3.124;2023-04-03T15:21:11;10.98;;;2.92;;
47009;SDS011;59230;54.164;-3.124;2023-04-03T15:23:40;10.55;;;3.05;;
47009;SDS011;59230;54.164;-3.124;2023-04-03T15:26:06;14.48;;;2.90;;
47009;SDS011;59230;54.164;-3.124;2023-04-03T15:28:42;14.70;;;2.78;;
47009;SDS011;59230;54.164;-3.124;2023-04-03T15:31:12;8.38;;;2.70;;
47009;SDS011;59230;54.164;-3.124;2023-04-03T15:33:39;11.93;;;2.83;;
47009;SDS011;59230;54.164;-3.124;2023-04-03T15:36:06;11.10;;;2.95;;
47009;SDS011;59230;54.164;-3.124;2023-04-03T15:38:33;16.60;;;3.20;;
47009;SDS011;59230;54.164;-3.124;2023-04-03T15:40:58;16.73;;;5.10;;
47009;SDS011;59230;54.164;-3.124;2023-04-03T15:43:25;14.57;;;5.97;;
47009;SDS011;59230;54.164;-3.124;2023-04-03T15:45:55;14.45;;;4.30;;
47009;SDS011;59230;54.164;-3.124;2023-04-03T15:48:25;10.88;;;3.30;;
47009;SDS011;59230;54.164;-3.124;2023-04-03T15:50:53;13.68;;;3.80;;
47009;SDS011;59230;54.164;-3.124;2023-04-03T15:53:20;10.30;;;3.20;;
47009;SDS011;59230;54.164;-3.124;2023-04-03T15:55:47;10.50;;;2.95;;
47009;SDS011;59230;54.164;-3.124;2023-04-03T15:58:13;11.77;;;3.60;;
47009;SDS011;59230;54.164;-3.124;2023-04-03T16:00:41;12.50;;;3.55;;
47009;SDS011;59230;54.164;-3.124;2023-04-03T16:03:16;13.75;;;3.25;;
47009;SDS011;59230;54.164;-3.124;2023-04-03T16:05:47;10.27;;;2.65;;
47009;SDS011;59230;54.164;-3.124;2023-04-03T16:08:14;11.77;;;2.97;;
47009;SDS011;59230;54.164;-3.124;2023-04-03T16:10:42;9.95;;;3.22;;
47009;SDS011;59230;54.164;-3.124;2023-04-03T16:13:09;15.05;;;3.67;;
47009;SDS011;59230;54.164;-3.124;2023-04-03T16:15:36;14.18;;;3.17;;
47009;SDS011;59230;54.164;-3.124;2023-04-03T16:18:03;12.30;;;3.10;;
47009;SDS011;59230;54.164;-3.124;2023-04-03T16:20:35;10.43;;;3.17;;
47009;SDS011;59230;54.164;-3.124;2023-04-03T16:23:01;10.10;;;3.47;;
47009;SDS011;59230;54.164;-3.124;2023-04-03T16:25:30;11.27;;;3.10;;
47009;SDS011;59230;54.164;-3.124;2023-04-03T16:27:57;8.50;;;2.88;;
47009;SDS011;59230;54.164;-3.124;2023-04-03T16:30:25;17.90;;;3.10;;
47009;SDS011;59230;54.164;-3.124;2023-04-03T16:32:52;17.05;;;3.45;;
47009;SDS011;59230;54.164;-3.124;2023-04-03T16:35:18;18.02;;;3.33;;
47009;SDS011;59230;54.164;-3.124;2023-04-03T16:37:47;18.13;;;3.92;;
47009;SDS011;59230;54.164;-3.124;2023-04-03T16:40:15;15.85;;;4.47;;
47009;SDS011;59230;54.164;-3.124;2023-04-03T16:42:42;12.40;;;4.28;;
47009;SDS011;59230;54.164;-3.124;2023-04-03T16:45:11;18.33;;;3.55;;
47009;SDS011;59230;54.164;-3.124;2023-04-03T16:47:37;13.43;;;3.70;;
47009;SDS011;59230;54.164;-3.124;2023-04-03T16:50:03;10.63;;;3.58;;
47009;SDS011;59230;54.164;-3.124;2023-04-03T16:52:30;9.73;;;3.78;;
47009;SDS011;59230;54.164;-3.124;2023-04-03T16:54:56;9.30;;;3.30;;
47009;SDS011;59230;54.164;-3.124;2023-04-03T16:57:25;14.02;;;3.55;;
47009;SDS011;59230;54.164;-3.124;2023-04-03T16:59:53;13.30;;;3.47;;
47009;SDS011;59230;54.164;-3.124;2023-04-03T17:02:20;16.05;;;3.67;;
47009;SDS011;59230;54.164;-3.124;2023-04-03T17:04:52;14.70;;;3.78;;
47009;SDS011;59230;54.164;-3.124;2023-04-03T17:07:20;14.02;;;3.58;;
47009;SDS011;59230;54.164;-3.124;2023-04-03T17:09:46;12.00;;;3.83;;
47009;SDS011;59230;54.164;-3.124;2023-04-03T17:12:13;11.45;;;3.28;;
47009;SDS011;59230;54.164;-3.124;2023-04-03T17:14:39;15.00;;;3.20;;
47009;SDS011;59230;54.164;-3.124;2023-04-03T17:17:05;14.00;;;3.35;;
47009;SDS011;59230;54.164;-3.124;2023-04-03T17:19:33;13.35;;;3.72;;
47009;SDS011;59230;54.164;-3.124;2023-04-03T17:22:00;11.52;;;3.70;;
47009;SDS011;59230;54.164;-3.124;2023-04-03T17:24:30;12.60;;;3.40;;